sensor_id;sensor_type;location;lat;lon;timestamp;P1;durP1;ratioP1;P2;durP2;ratioP2
20034;SDS011;10178;48.034;9.800;2023-05-27T00:01:16;8.32;;;5.65;;
20034;SDS011;10178;48.034;9.800;2023-05-27T00:03:42;7.35;;;5.50;;
20034;SDS011;10178;48.034;9.800;2023-05-27T00:06:08;11.40;;;5.95;;
20034;SDS011;10178;48.034;9.800;2023-05-27T00:08:33;7.75;;;5.57;;
20034;SDS011;10178;48.034;9.800;2023-05-27T00:10:59;9.80;;;5.70;;
20034;SDS011;10178;48.034;9.800;2023-05-27T00:13:25;10.18;;;6.43;;
20034;SDS011;10178;48.034;9.800;2023-05-27T00:15:50;6.68;;;5.47;;
20034;SDS011;10178;48.034;9.800;2023-05-27T00:18:16;9.10;;;5.85;;
20034;SDS011;10178;48.034;9.800;2023-05-27T00:20:42;9.93;;;6.05;;
20034;SDS011;10178;48.034;9.800;2023-05-27T00:23:07;8.98;;;5.45;;
20034;SDS011;10178;48.034;9.800;2023-05-27T00:25:33;12.25;;;5.35;;
20034;SDS011;10178;48.034;9.800;2023-05-27T00:27:58;8.48;;;5.72;;
20034;SDS011;10178;48.034;9.800;2023-05-27T00:30:24;9.30;;;5.28;;
20034;SDS011;10178;48.034;9.800;2023-05-27T00:32:50;9.95;;;5.70;;
20034;SDS011;10178;48.034;9.800;2023-05-27T00:35:15;9.77;;;5.47;;
20034;SDS011;10178;48.034;9.800;2023-05-27T00:37:41;9.13;;;5.60;;
20034;SDS011;10178;48.034;9.800;2023-05-27T00:40:08;8.35;;;5.50;;
20034;SDS011;10178;48.034;9.800;2023-05-27T00:42:36;10.88;;;5.65;;
20034;SDS011;10178;48.034;9.800;2023-05-27T00:45:02;6.93;;;4.93;;
20034;SDS011;10178;48.034;9.800;2023-05-27T00:47:29;9.45;;;5.43;;
20034;SDS011;10178;48.034;9.800;2023-05-27T00:49:56;7.63;;;5.50;;
20034;SDS011;10178;48.034;9.800;2023-05-27T00:52:22;9.00;;;6.18;;
20034;SDS011;10178;48.034;9.800;2023-05-27T00:54:48;8.35;;;5.07;;
20034;SDS011;10178;48.034;9.800;2023-05-27T00:57:14;10.88;;;5.85;;
20034;SDS011;10178;48.034;9.800;2023-05-27T00:59:40;8.65;;;5.38;;
20034;SDS011;10178;48.034;9.800;2023-05-27T01:02:06;7.43;;;5.45;;
20034;SDS011;10178;48.034;9.800;2023-05-27T01:04:31;10.98;;;5.55;;
20034;SDS011;10178;48.034;9.800;2023-05-27T01:07:06;9.57;;;5.45;;
20034;SDS011;10178;48.034;9.800;2023-05-27T01:13:06;9.50;;;5.20;;
20034;SDS011;10178;48.034;9.800;2023-05-27T01:15:15;9.88;;;5.43;;
20034;SDS011;10178;48.034;9.800;2023-05-27T01:17:43;9.77;;;5.35;;
20034;SDS011;10178;48.034;9.800;2023-05-27T01:20:11;10.57;;;5.07;;
20034;SDS011;10178;48.034;9.800;2023-05-27T01:22:39;9.60;;;5.25;;
20034;SDS011;10178;48.034;9.800;2023-05-27T01:25:09;9.98;;;5.65;;
20034;SDS011;10178;48.034;9.800;2023-05-27T01:27:34;10.00;;;4.63;;
20034;SDS011;10178;48.034;9.800;2023-05-27T01:30:00;9.13;;;4.70;;
20034;SDS011;10178;48.034;9.800;2023-05-27T01:32:29;9.18;;;4.80;;
20034;SDS011;10178;48.034;9.800;2023-05-27T01:35:00;12.63;;;5.32;;
20034;SDS011;10178;48.034;9.800;2023-05-27T01:37:35;6.22;;;4.68;;
20034;SDS011;10178;48.034;9.800;2023-05-27T01:40:03;9.13;;;4.93;;
20034;SDS011;10178;48.034;9.800;2023-05-27T01:42:35;8.90;;;5.28;;
20034;SDS011;10178;48.034;9.800;2023-05-27T01:45:03;7.85;;;5.03;;
20034;SDS011;10178;48.034;9.800;2023-05-27T01:47:31;7.63;;;4.95;;
20034;SDS011;10178;48.034;9.800;2023-05-27T01:49:57;11.13;;;5.97;;
20034;SDS011;10178;48.034;9.800;2023-05-27T01:52:22;7.78;;;4.82;;
20034;SDS011;10178;48.034;9.800;2023-05-27T01:54:48;9.57;;;5.28;;
20034;SDS011;10178;48.034;9.800;2023-05-27T01:57:14;6.68;;;4.57;;
20034;SDS011;10178;48.034;9.800;2023-05-27T01:59:41;8.35;;;4.85;;
20034;SDS011;10178;48.034;9.800;2023-05-27T02:02:07;11.07;;;5.07;;
20034;SDS011;10178;48.034;9.800;2023-05-27T02:04:32;7.40;;;4.88;;
20034;SDS011;10178;48.034;9.800;2023-05-27T02:07:02;7.85;;;4.78;;
20034;SDS011;10178;48.034;9.800;2023-05-27T02:09:28;9.70;;;5.03;;
20034;SDS011;10178;48.034;9.800;2023-05-27T02:11:54;7.90;;;5.20;;
20034;SDS011;10178;48.034;9.800;2023-05-27T02:14:19;9.00;;;4.68;;
20034;SDS011;10178;48.034;9.800;2023-05-27T02:16:45;10.80;;;5.00;;
20034;SDS011;10178;48.034;9.800;2023-05-27T02:19:12;7.22;;;4.80;;
20034;SDS011;10178;48.034;9.800;2023-05-27T02:21:39;7.25;;;5.05;;
20034;SDS011;10178;48.034;9.800;2023-05-27T02:24:04;11.07;;;5.03;;
20034;SDS011;10178;48.034;9.800;2023-05-27T02:26:30;7.68;;;4.55;;
20034;SDS011;10178;48.034;9.800;2023-05-27T02:28:56;8.45;;;5.30;;
20034;SDS011;10178;48.034;9.800;2023-05-27T02:31:21;9.20;;;4.90;;
20034;SDS011;10178;48.034;9.800;2023-05-27T02:33:47;8.85;;;5.07;;
20034;SDS011;10178;48.034;9.800;2023-05-27T02:36:13;8.80;;;5.13;;
20034;SDS011;10178;48.034;9.800;2023-05-27T02:38:38;8.20;;;5.07;;
20034;SDS011;10178;48.034;9.800;2023-05-27T02:41:04;7.53;;;4.70;;
20034;SDS011;10178;48.034;9.800;2023-05-27T02:43:30;6.90;;;4.88;;
20034;SDS011;10178;48.034;9.800;2023-05-27T02:45:56;11.30;;;5.00;;
20034;SDS011;10178;48.034;9.800;2023-05-27T02:48:21;6.97;;;4.55;;
20034;SDS011;10178;48.034;9.800;2023-05-27T02:50:47;7.15;;;4.47;;
20034;SDS011;10178;48.034;9.800;2023-05-27T02:53:13;7.63;;;4.97;;
20034;SDS011;10178;48.034;9.800;2023-05-27T02:55:39;8.45;;;5.25;;
20034;SDS011;10178;48.034;9.800;2023-05-27T02:58:05;9.98;;;4.90;;
20034;SDS011;10178;48.034;9.800;2023-05-27T03:00:31;10.77;;;4.90;;
20034;SDS011;10178;48.034;9.800;2023-05-27T03:02:57;9.73;;;5.15;;
20034;SDS011;10178;48.034;9.800;2023-05-27T03:05:23;9.35;;;5.30;;
20034;SDS011;10178;48.034;9.800;2023-05-27T03:07:48;9.75;;;4.80;;
20034;SDS011;10178;48.034;9.800;2023-05-27T03:10:14;9.05;;;5.38;;
20034;SDS011;10178;48.034;9.800;2023-05-27T03:12:40;7.18;;;4.10;;
20034;SDS011;10178;48.034;9.800;2023-05-27T03:15:05;7.70;;;5.05;;
20034;SDS011;10178;48.034;9.800;2023-05-27T03:17:32;8.55;;;4.97;;
20034;SDS011;10178;48.034;9.800;2023-05-27T03:20:00;9.95;;;4.80;;
20034;SDS011;10178;48.034;9.800;2023-05-27T03:22:25;7.43;;;4.70;;
20034;SDS011;10178;48.034;9.800;2023-05-27T03:24:51;10.88;;;5.25;;
20034;SDS011;10178;48.034;9.800;2023-05-27T03:27:19;8.73;;;5.68;;
20034;SDS011;10178;48.034;9.800;2023-05-27T03:29:45;8.20;;;4.65;;
20034;SDS011;10178;48.034;9.800;2023-05-27T03:32:11;6.85;;;4.35;;
20034;SDS011;10178;48.034;9.800;2023-05-27T03:34:37;7.07;;;4.25;;
20034;SDS011;10178;48.034;9.800;2023-05-27T03:37:02;7.90;;;4.88;;
20034;SDS011;10178;48.034;9.800;2023-05-27T03:39:28;7.72;;;4.22;;
20034;SDS011;10178;48.034;9.800;2023-05-27T03:41:54;8.43;;;5.03;;
20034;SDS011;10178;48.034;9.800;2023-05-27T03:44:19;8.93;;;4.82;;
20034;SDS011;10178;48.034;9.800;2023-05-27T03:46:45;7.28;;;4.32;;
20034;SDS011;10178;48.034;9.800;2023-05-27T03:49:11;7.40;;;4.43;;
20034;SDS011;10178;48.034;9.800;2023-05-27T03:51:36;9.45;;;6.07;;
20034;SDS011;10178;48.034;9.800;2023-05-27T03:54:02;8.88;;;4.57;;
20034;SDS011;10178;48.034;9.800;2023-05-27T03:56:27;8.57;;;4.75;;
20034;SDS011;10178;48.034;9.800;2023-05-27T03:58:53;7.78;;;4.93;;
20034;SDS011;10178;48.034;9.800;2023-05-27T04:01:19;7.47;;;4.53;;
20034;SDS011;10178;48.034;9.800;2023-05-27T04:03:45;7.30;;;4.53;;
20034;SDS011;10178;48.034;9.800;2023-05-27T04:06:11;8.25;;;4.95;;
20034;SDS011;10178;48.034;9.800;2023-05-27T04:08:36;6.18;;;4.55;;
20034;SDS011;10178;48.034;9.800;2023-05-27T04:11:04;5.93;;;4.75;;
20034;SDS011;10178;48.034;9.800;2023-05-27T04:13:29;8.63;;;4.88;;
20034;SDS011;10178;48.034;9.800;2023-05-27T04:15:55;9.68;;;4.97;;
20034;SDS011;10178;48.034;9.800;2023-05-27T04:18:22;10.93;;;5.20;;
20034;SDS011;10178;48.034;9.800;2023-05-27T04:20:48;9.85;;;4.95;;
20034;SDS011;10178;48.034;9.800;2023-05-27T04:23:15;6.93;;;4.18;;
20034;SDS011;10178;48.034;9.800;2023-05-27T04:25:41;8.40;;;5.07;;
20034;SDS011;10178;48.034;9.800;2023-05-27T04:28:07;7.88;;;4.45;;
20034;SDS011;10178;48.034;9.800;2023-05-27T04:30:33;7.85;;;5.15;;
20034;SDS011;10178;48.034;9.800;2023-05-27T04:33:00;7.78;;;4.80;;
20034;SDS011;10178;48.034;9.800;2023-05-27T04:35:26;8.35;;;5.28;;
20034;SDS011;10178;48.034;9.800;2023-05-27T04:37:52;7.20;;;4.38;;
20034;SDS011;10178;48.034;9.800;2023-05-27T04:40:17;8.60;;;5.10;;
20034;SDS011;10178;48.034;9.800;2023-05-27T04:42:44;7.38;;;4.60;;
20034;SDS011;10178;48.034;9.800;2023-05-27T04:45:10;6.65;;;4.53;;
20034;SDS011;10178;48.034;9.800;2023-05-27T04:47:37;7.53;;;4.45;;
20034;SDS011;10178;48.034;9.800;2023-05-27T04:50:03;10.00;;;4.95;;
20034;SDS011;10178;48.034;9.800;2023-05-27T04:52:30;7.22;;;4.65;;
20034;SDS011;10178;48.034;9.800;2023-05-27T04:55:05;18.42;;;5.38;;
20034;SDS011;10178;48.034;9.800;2023-05-27T04:57:32;6.45;;;4.57;;
20034;SDS011;10178;48.034;9.800;2023-05-27T04:59:58;9.18;;;4.93;;
20034;SDS011;10178;48.034;9.800;2023-05-27T05:02:43;8.77;;;4.63;;
20034;SDS011;10178;48.034;9.800;2023-05-27T05:05:12;9.07;;;4.80;;
20034;SDS011;10178;48.034;9.800;2023-05-27T05:07:38;7.30;;;5.25;;
20034;SDS011;10178;48.034;9.800;2023-05-27T05:10:12;7.85;;;5.13;;
20034;SDS011;10178;48.034;9.800;2023-05-27T05:12:38;9.82;;;4.97;;
20034;SDS011;10178;48.034;9.800;2023-05-27T05:15:04;8.98;;;4.70;;
20034;SDS011;10178;48.034;9.800;2023-05-27T05:17:30;8.07;;;4.70;;
20034;SDS011;10178;48.034;9.800;2023-05-27T05:19:56;6.53;;;5.00;;
20034;SDS011;10178;48.034;9.800;2023-05-27T05:22:21;10.48;;;4.68;;
20034;SDS011;10178;48.034;9.800;2023-05-27T05:24:48;7.70;;;4.25;;
20034;SDS011;10178;48.034;9.800;2023-05-27T05:27:15;7.75;;;4.80;;
20034;SDS011;10178;48.034;9.800;2023-05-27T05:29:41;9.60;;;4.75;;
20034;SDS011;10178;48.034;9.800;2023-05-27T05:32:06;9.35;;;5.10;;
20034;SDS011;10178;48.034;9.800;2023-05-27T05:34:35;10.80;;;4.72;;
20034;SDS011;10178;48.034;9.800;2023-05-27T05:37:01;8.43;;;4.75;;
20034;SDS011;10178;48.034;9.800;2023-05-27T05:39:27;9.23;;;4.70;;
20034;SDS011;10178;48.034;9.800;2023-05-27T05:41:52;7.88;;;4.50;;
20034;SDS011;10178;48.034;9.800;2023-05-27T05:44:18;7.35;;;4.53;;
20034;SDS011;10178;48.034;9.800;2023-05-27T05:46:44;9.88;;;4.60;;
20034;SDS011;10178;48.034;9.800;2023-05-27T05:49:09;8.15;;;4.70;;
20034;SDS011;10178;48.034;9.800;2023-05-27T05:51:35;11.82;;;4.60;;
20034;SDS011;10178;48.034;9.800;2023-05-27T05:54:01;9.52;;;4.85;;
20034;SDS011;10178;48.034;9.800;2023-05-27T05:56:26;11.60;;;4.70;;
20034;SDS011;10178;48.034;9.800;2023-05-27T05:58:52;8.25;;;4.93;;
20034;SDS011;10178;48.034;9.800;2023-05-27T06:01:18;8.75;;;5.15;;
20034;SDS011;10178;48.034;9.800;2023-05-27T06:03:44;7.57;;;4.70;;
20034;SDS011;10178;48.034;9.800;2023-05-27T06:06:10;8.07;;;5.22;;
20034;SDS011;10178;48.034;9.800;2023-05-27T06:08:35;6.60;;;5.28;;
20034;SDS011;10178;48.034;9.800;2023-05-27T06:11:01;7.60;;;5.03;;
20034;SDS011;10178;48.034;9.800;2023-05-27T06:13:27;6.88;;;4.80;;
20034;SDS011;10178;48.034;9.800;2023-05-27T06:15:52;8.20;;;4.80;;
20034;SDS011;10178;48.034;9.800;2023-05-27T06:18:20;8.55;;;5.25;;
20034;SDS011;10178;48.034;9.800;2023-05-27T06:20:46;9.60;;;5.22;;
20034;SDS011;10178;48.034;9.800;2023-05-27T06:23:11;7.90;;;4.88;;
20034;SDS011;10178;48.034;9.800;2023-05-27T06:25:37;8.15;;;4.78;;
20034;SDS011;10178;48.034;9.800;2023-05-27T06:28:03;9.13;;;5.63;;
20034;SDS011;10178;48.034;9.800;2023-05-27T06:30:28;7.18;;;5.07;;
20034;SDS011;10178;48.034;9.800;2023-05-27T06:32:54;9.00;;;5.30;;
20034;SDS011;10178;48.034;9.800;2023-05-27T06:35:20;10.45;;;6.10;;
20034;SDS011;10178;48.034;9.800;2023-05-27T06:37:46;7.82;;;5.20;;
20034;SDS011;10178;48.034;9.800;2023-05-27T06:40:11;11.40;;;5.00;;
20034;SDS011;10178;48.034;9.800;2023-05-27T06:42:37;6.25;;;4.70;;
20034;SDS011;10178;48.034;9.800;2023-05-27T06:45:03;9.40;;;5.13;;
20034;SDS011;10178;48.034;9.800;2023-05-27T06:47:29;7.63;;;5.25;;
20034;SDS011;10178;48.034;9.800;2023-05-27T06:49:55;10.82;;;5.03;;
20034;SDS011;10178;48.034;9.800;2023-05-27T06:52:20;10.52;;;5.75;;
20034;SDS011;10178;48.034;9.800;2023-05-27T06:54:46;11.32;;;5.10;;
20034;SDS011;10178;48.034;9.800;2023-05-27T06:57:13;10.07;;;6.07;;
20034;SDS011;10178;48.034;9.800;2023-05-27T06:59:39;8.63;;;6.30;;
20034;SDS011;10178;48.034;9.800;2023-05-27T07:02:05;6.82;;;5.57;;
20034;SDS011;10178;48.034;9.800;2023-05-27T07:04:31;10.73;;;5.95;;
20034;SDS011;10178;48.034;9.800;2023-05-27T07:06:58;10.80;;;6.68;;
20034;SDS011;10178;48.034;9.800;2023-05-27T07:09:23;8.30;;;5.40;;
20034;SDS011;10178;48.034;9.800;2023-05-27T07:11:49;9.20;;;5.35;;
20034;SDS011;10178;48.034;9.800;2023-05-27T07:14:15;13.18;;;6.88;;
20034;SDS011;10178;48.034;9.800;2023-05-27T07:16:40;11.02;;;6.13;;
20034;SDS011;10178;48.034;9.800;2023-05-27T07:19:06;9.90;;;6.55;;
20034;SDS011;10178;48.034;9.800;2023-05-27T07:21:32;8.38;;;6.07;;
20034;SDS011;10178;48.034;9.800;2023-05-27T07:23:58;9.02;;;5.70;;
20034;SDS011;10178;48.034;9.800;2023-05-27T07:26:27;11.05;;;6.50;;
20034;SDS011;10178;48.034;9.800;2023-05-27T07:28:54;10.63;;;6.50;;
20034;SDS011;10178;48.034;9.800;2023-05-27T07:31:21;14.43;;;6.80;;
20034;SDS011;10178;48.034;9.800;2023-05-27T07:33:47;9.90;;;6.13;;
20034;SDS011;10178;48.034;9.800;2023-05-27T07:36:12;8.40;;;5.82;;
20034;SDS011;10178;48.034;9.800;2023-05-27T07:38:38;9.18;;;6.03;;
20034;SDS011;10178;48.034;9.800;2023-05-27T07:41:03;8.32;;;5.55;;
20034;SDS011;10178;48.034;9.800;2023-05-27T07:43:29;9.85;;;6.60;;
20034;SDS011;10178;48.034;9.800;2023-05-27T07:45:55;10.23;;;6.32;;
20034;SDS011;10178;48.034;9.800;2023-05-27T07:48:20;10.20;;;6.35;;
20034;SDS011;10178;48.034;9.800;2023-05-27T07:50:46;10.40;;;6.00;;
20034;SDS011;10178;48.034;9.800;2023-05-27T07:53:12;11.35;;;5.95;;
20034;SDS011;10178;48.034;9.800;2023-05-27T07:55:37;17.25;;;7.90;;
20034;SDS011;10178;48.034;9.800;2023-05-27T07:58:03;14.88;;;8.35;;
20034;SDS011;10178;48.034;9.800;2023-05-27T08:00:28;14.55;;;7.90;;
20034;SDS011;10178;48.034;9.800;2023-05-27T08:02:55;17.13;;;7.78;;
20034;SDS011;10178;48.034;9.800;2023-05-27T08:05:20;10.85;;;7.22;;
20034;SDS011;10178;48.034;9.800;2023-05-27T08:07:46;12.15;;;7.47;;
20034;SDS011;10178;48.034;9.800;2023-05-27T08:10:12;10.82;;;7.15;;
20034;SDS011;10178;48.034;9.800;2023-05-27T08:12:37;13.10;;;7.65;;
20034;SDS011;10178;48.034;9.800;2023-05-27T08:15:03;13.25;;;7.18;;
20034;SDS011;10178;48.034;9.800;2023-05-27T08:17:29;13.80;;;7.00;;
20034;SDS011;10178;48.034;9.800;2023-05-27T08:19:55;10.93;;;7.25;;
20034;SDS011;10178;48.034;9.800;2023-05-27T08:22:21;13.65;;;7.68;;
20034;SDS011;10178;48.034;9.800;2023-05-27T08:24:46;15.00;;;9.18;;
20034;SDS011;10178;48.034;9.800;2023-05-27T08:27:14;15.68;;;8.18;;
20034;SDS011;10178;48.034;9.800;2023-05-27T08:29:41;16.73;;;8.90;;
20034;SDS011;10178;48.034;9.800;2023-05-27T08:32:06;14.38;;;8.65;;
20034;SDS011;10178;48.034;9.800;2023-05-27T08:34:32;17.02;;;9.95;;
20034;SDS011;10178;48.034;9.800;2023-05-27T08:36:58;15.82;;;8.02;;
20034;SDS011;10178;48.034;9.800;2023-05-27T08:39:25;14.45;;;7.93;;
20034;SDS011;10178;48.034;9.800;2023-05-27T08:41:52;12.32;;;8.05;;
20034;SDS011;10178;48.034;9.800;2023-05-27T08:44:18;16.05;;;8.23;;
20034;SDS011;10178;48.034;9.800;2023-05-27T08:46:48;15.85;;;7.63;;
20034;SDS011;10178;48.034;9.800;2023-05-27T08:49:15;20.05;;;9.85;;
20034;SDS011;10178;48.034;9.800;2023-05-27T08:51:41;18.88;;;9.00;;
20034;SDS011;10178;48.034;9.800;2023-05-27T08:54:08;20.63;;;9.95;;
20034;SDS011;10178;48.034;9.800;2023-05-27T08:56:34;12.23;;;8.13;;
20034;SDS011;10178;48.034;9.800;2023-05-27T08:59:01;24.35;;;9.20;;
20034;SDS011;10178;48.034;9.800;2023-05-27T09:01:27;15.43;;;8.68;;
20034;SDS011;10178;48.034;9.800;2023-05-27T09:03:55;13.68;;;7.97;;
20034;SDS011;10178;48.034;9.800;2023-05-27T09:06:21;19.35;;;8.52;;
20034;SDS011;10178;48.034;9.800;2023-05-27T09:08:47;12.00;;;8.45;;
20034;SDS011;10178;48.034;9.800;2023-05-27T09:11:22;12.55;;;6.95;;
20034;SDS011;10178;48.034;9.800;2023-05-27T09:13:50;14.65;;;8.32;;
20034;SDS011;10178;48.034;9.800;2023-05-27T09:16:20;13.98;;;8.95;;
20034;SDS011;10178;48.034;9.800;2023-05-27T09:18:47;17.13;;;7.72;;
20034;SDS011;10178;48.034;9.800;2023-05-27T09:21:13;15.00;;;8.23;;
20034;SDS011;10178;48.034;9.800;2023-05-27T09:23:39;16.30;;;8.55;;
20034;SDS011;10178;48.034;9.800;2023-05-27T09:26:09;16.23;;;7.75;;
20034;SDS011;10178;48.034;9.800;2023-05-27T09:28:35;13.77;;;7.55;;
20034;SDS011;10178;48.034;9.800;2023-05-27T09:31:02;14.55;;;7.40;;
20034;SDS011;10178;48.034;9.800;2023-05-27T09:33:31;13.00;;;8.48;;
20034;SDS011;10178;48.034;9.800;2023-05-27T09:36:02;10.98;;;7.15;;
20034;SDS011;10178;48.034;9.800;2023-05-27T09:38:32;17.13;;;8.45;;
20034;SDS011;10178;48.034;9.800;2023-05-27T09:40:58;15.82;;;7.60;;
20034;SDS011;10178;48.034;9.800;2023-05-27T09:43:24;13.02;;;8.18;;
20034;SDS011;10178;48.034;9.800;2023-05-27T09:45:51;14.43;;;7.45;;
20034;SDS011;10178;48.034;9.800;2023-05-27T09:48:21;10.93;;;7.15;;
20034;SDS011;10178;48.034;9.800;2023-05-27T09:50:49;14.88;;;8.25;;
20034;SDS011;10178;48.034;9.800;2023-05-27T09:53:16;12.63;;;5.88;;
20034;SDS011;10178;48.034;9.800;2023-05-27T09:55:43;14.18;;;7.70;;
20034;SDS011;10178;48.034;9.800;2023-05-27T09:58:09;10.38;;;6.13;;
20034;SDS011;10178;48.034;9.800;2023-05-27T10:00:36;11.50;;;7.47;;
20034;SDS011;10178;48.034;9.800;2023-05-27T10:03:04;13.70;;;6.97;;
20034;SDS011;10178;48.034;9.800;2023-05-27T10:05:31;11.35;;;6.70;;
20034;SDS011;10178;48.034;9.800;2023-05-27T10:07:59;15.80;;;7.15;;
20034;SDS011;10178;48.034;9.800;2023-05-27T10:10:24;13.30;;;7.10;;
20034;SDS011;10178;48.034;9.800;2023-05-27T10:12:50;13.13;;;6.95;;
20034;SDS011;10178;48.034;9.800;2023-05-27T10:15:27;19.38;;;6.80;;
20034;SDS011;10178;48.034;9.800;2023-05-27T10:17:57;7.95;;;5.95;;
20034;SDS011;10178;48.034;9.800;2023-05-27T10:20:33;11.65;;;5.93;;
20034;SDS011;10178;48.034;9.800;2023-05-27T10:23:09;8.60;;;6.32;;
20034;SDS011;10178;48.034;9.800;2023-05-27T10:25:38;9.88;;;6.50;;
20034;SDS011;10178;48.034;9.800;2023-05-27T10:28:05;12.40;;;6.53;;
20034;SDS011;10178;48.034;9.800;2023-05-27T10:30:53;8.60;;;6.93;;
20034;SDS011;10178;48.034;9.800;2023-05-27T10:33:30;8.63;;;6.40;;
20034;SDS011;10178;48.034;9.800;2023-05-27T10:38:34;10.07;;;6.60;;
20034;SDS011;10178;48.034;9.800;2023-05-27T10:41:00;9.75;;;6.55;;
20034;SDS011;10178;48.034;9.800;2023-05-27T10:43:28;9.90;;;6.90;;
20034;SDS011;10178;48.034;9.800;2023-05-27T10:48:33;13.77;;;7.65;;
20034;SDS011;10178;48.034;9.800;2023-05-27T10:50:59;9.80;;;6.68;;
20034;SDS011;10178;48.034;9.800;2023-05-27T10:53:25;10.32;;;7.25;;
20034;SDS011;10178;48.034;9.800;2023-05-27T10:55:52;11.95;;;6.25;;
20034;SDS011;10178;48.034;9.800;2023-05-27T10:58:18;10.73;;;7.03;;
20034;SDS011;10178;48.034;9.800;2023-05-27T11:00:48;14.15;;;6.75;;
20034;SDS011;10178;48.034;9.800;2023-05-27T11:03:19;10.32;;;6.88;;
20034;SDS011;10178;48.034;9.800;2023-05-27T11:06:02;7.50;;;6.20;;
20034;SDS011;10178;48.034;9.800;2023-05-27T11:08:30;8.88;;;6.13;;
20034;SDS011;10178;48.034;9.800;2023-05-27T11:13:32;10.13;;;6.40;;
20034;SDS011;10178;48.034;9.800;2023-05-27T11:16:03;10.52;;;6.97;;
20034;SDS011;10178;48.034;9.800;2023-05-27T11:18:42;11.60;;;6.53;;
20034;SDS011;10178;48.034;9.800;2023-05-27T11:21:11;11.65;;;7.00;;
20034;SDS011;10178;48.034;9.800;2023-05-27T11:23:37;10.82;;;6.20;;
20034;SDS011;10178;48.034;9.800;2023-05-27T11:43:31;12.32;;;6.63;;
20034;SDS011;10178;48.034;9.800;2023-05-27T11:46:02;10.73;;;6.72;;
20034;SDS011;10178;48.034;9.800;2023-05-27T11:48:30;15.45;;;7.18;;
20034;SDS011;10178;48.034;9.800;2023-05-27T11:51:02;17.95;;;6.35;;
20034;SDS011;10178;48.034;9.800;2023-05-27T11:53:35;11.82;;;6.53;;
20034;SDS011;10178;48.034;9.800;2023-05-27T11:56:06;11.73;;;7.10;;
20034;SDS011;10178;48.034;9.800;2023-05-27T11:58:32;10.93;;;6.55;;
20034;SDS011;10178;48.034;9.800;2023-05-27T12:00:58;12.15;;;5.85;;
20034;SDS011;10178;48.034;9.800;2023-05-27T12:03:23;11.63;;;6.70;;
20034;SDS011;10178;48.034;9.800;2023-05-27T12:05:49;9.73;;;6.00;;
20034;SDS011;10178;48.034;9.800;2023-05-27T12:08:15;11.00;;;6.13;;
20034;SDS011;10178;48.034;9.800;2023-05-27T12:10:40;11.85;;;6.40;;
20034;SDS011;10178;48.034;9.800;2023-05-27T12:13:06;10.65;;;6.63;;
20034;SDS011;10178;48.034;9.800;2023-05-27T12:15:32;9.52;;;6.70;;
20034;SDS011;10178;48.034;9.800;2023-05-27T12:17:57;10.07;;;6.40;;
20034;SDS011;10178;48.034;9.800;2023-05-27T12:20:23;10.88;;;5.95;;
20034;SDS011;10178;48.034;9.800;2023-05-27T12:22:53;12.93;;;6.07;;
20034;SDS011;10178;48.034;9.800;2023-05-27T12:25:20;8.88;;;6.10;;
20034;SDS011;10178;48.034;9.800;2023-05-27T12:27:45;13.63;;;6.72;;
20034;SDS011;10178;48.034;9.800;2023-05-27T12:30:11;8.80;;;6.70;;
20034;SDS011;10178;48.034;9.800;2023-05-27T12:32:38;17.63;;;7.25;;
20034;SDS011;10178;48.034;9.800;2023-05-27T12:35:04;12.73;;;6.18;;
20034;SDS011;10178;48.034;9.800;2023-05-27T12:37:31;9.27;;;5.85;;
20034;SDS011;10178;48.034;9.800;2023-05-27T12:39:56;8.82;;;6.00;;
20034;SDS011;10178;48.034;9.800;2023-05-27T12:42:22;10.02;;;6.28;;
20034;SDS011;10178;48.034;9.800;2023-05-27T12:44:48;14.93;;;6.30;;
20034;SDS011;10178;48.034;9.800;2023-05-27T12:47:13;10.85;;;6.20;;
20034;SDS011;10178;48.034;9.800;2023-05-27T12:49:39;9.77;;;6.38;;
20034;SDS011;10178;48.034;9.800;2023-05-27T12:52:05;13.18;;;5.78;;
20034;SDS011;10178;48.034;9.800;2023-05-27T12:54:31;11.85;;;6.57;;
20034;SDS011;10178;48.034;9.800;2023-05-27T12:56:56;13.50;;;6.32;;
20034;SDS011;10178;48.034;9.800;2023-05-27T12:59:22;10.70;;;5.90;;
20034;SDS011;10178;48.034;9.800;2023-05-27T13:01:48;9.02;;;6.10;;
20034;SDS011;10178;48.034;9.800;2023-05-27T13:04:13;12.70;;;5.72;;
20034;SDS011;10178;48.034;9.800;2023-05-27T13:06:40;14.18;;;6.40;;
20034;SDS011;10178;48.034;9.800;2023-05-27T13:09:05;11.50;;;6.55;;
20034;SDS011;10178;48.034;9.800;2023-05-27T13:11:33;9.70;;;6.10;;
20034;SDS011;10178;48.034;9.800;2023-05-27T13:13:58;11.95;;;5.75;;
20034;SDS011;10178;48.034;9.800;2023-05-27T13:16:24;9.18;;;5.85;;
20034;SDS011;10178;48.034;9.800;2023-05-27T13:18:50;11.82;;;6.47;;
20034;SDS011;10178;48.034;9.800;2023-05-27T13:21:15;9.98;;;5.95;;
20034;SDS011;10178;48.034;9.800;2023-05-27T13:23:41;10.60;;;6.07;;
20034;SDS011;10178;48.034;9.800;2023-05-27T13:26:06;8.02;;;5.70;;
20034;SDS011;10178;48.034;9.800;2023-05-27T13:28:32;10.88;;;6.05;;
20034;SDS011;10178;48.034;9.800;2023-05-27T13:30:58;13.00;;;5.82;;
20034;SDS011;10178;48.034;9.800;2023-05-27T13:33:23;8.02;;;5.28;;
20034;SDS011;10178;48.034;9.800;2023-05-27T13:35:49;11.88;;;5.90;;
20034;SDS011;10178;48.034;9.800;2023-05-27T13:38:14;12.63;;;6.68;;
20034;SDS011;10178;48.034;9.800;2023-05-27T13:40:41;9.30;;;5.03;;
20034;SDS011;10178;48.034;9.800;2023-05-27T13:43:07;14.73;;;5.93;;
20034;SDS011;10178;48.034;9.800;2023-05-27T13:45:33;9.63;;;4.93;;
20034;SDS011;10178;48.034;9.800;2023-05-27T13:47:58;8.32;;;4.90;;
20034;SDS011;10178;48.034;9.800;2023-05-27T13:50:24;10.48;;;5.70;;
20034;SDS011;10178;48.034;9.800;2023-05-27T13:52:50;10.07;;;5.78;;
20034;SDS011;10178;48.034;9.800;2023-05-27T13:55:15;10.90;;;5.22;;
20034;SDS011;10178;48.034;9.800;2023-05-27T13:57:41;11.55;;;5.47;;
20034;SDS011;10178;48.034;9.800;2023-05-27T14:00:08;8.20;;;5.22;;
20034;SDS011;10178;48.034;9.800;2023-05-27T14:02:34;10.27;;;5.85;;
20034;SDS011;10178;48.034;9.800;2023-05-27T14:05:00;8.98;;;5.35;;
20034;SDS011;10178;48.034;9.800;2023-05-27T14:07:27;8.50;;;5.70;;
20034;SDS011;10178;48.034;9.800;2023-05-27T14:09:53;13.48;;;5.20;;
20034;SDS011;10178;48.034;9.800;2023-05-27T14:12:19;8.40;;;5.47;;
20034;SDS011;10178;48.034;9.800;2023-05-27T14:14:44;9.30;;;5.75;;
20034;SDS011;10178;48.034;9.800;2023-05-27T14:17:10;11.57;;;5.25;;
20034;SDS011;10178;48.034;9.800;2023-05-27T14:19:36;15.15;;;5.95;;
20034;SDS011;10178;48.034;9.800;2023-05-27T14:22:01;11.07;;;5.50;;
20034;SDS011;10178;48.034;9.800;2023-05-27T14:24:27;11.70;;;5.97;;
20034;SDS011;10178;48.034;9.800;2023-05-27T14:26:53;9.32;;;5.53;;
20034;SDS011;10178;48.034;9.800;2023-05-27T14:29:18;8.82;;;5.78;;
20034;SDS011;10178;48.034;9.800;2023-05-27T14:31:44;10.48;;;6.05;;
20034;SDS011;10178;48.034;9.800;2023-05-27T14:34:10;8.68;;;5.82;;
20034;SDS011;10178;48.034;9.800;2023-05-27T14:36:35;9.45;;;5.63;;
20034;SDS011;10178;48.034;9.800;2023-05-27T14:39:01;7.65;;;5.55;;
20034;SDS011;10178;48.034;9.800;2023-05-27T14:41:30;8.77;;;5.65;;
20034;SDS011;10178;48.034;9.800;2023-05-27T14:43:56;10.02;;;5.90;;
20034;SDS011;10178;48.034;9.800;2023-05-27T14:46:22;8.98;;;5.18;;
20034;SDS011;10178;48.034;9.800;2023-05-27T14:48:47;8.82;;;4.93;;
20034;SDS011;10178;48.034;9.800;2023-05-27T14:51:13;9.73;;;5.35;;
20034;SDS011;10178;48.034;9.800;2023-05-27T14:53:38;10.77;;;5.70;;
20034;SDS011;10178;48.034;9.800;2023-05-27T14:56:04;10.23;;;5.53;;
20034;SDS011;10178;48.034;9.800;2023-05-27T14:58:30;11.43;;;5.78;;
20034;SDS011;10178;48.034;9.800;2023-05-27T15:00:56;10.07;;;5.60;;
20034;SDS011;10178;48.034;9.800;2023-05-27T15:03:21;9.43;;;5.78;;
20034;SDS011;10178;48.034;9.800;2023-05-27T15:05:47;8.00;;;4.97;;